createdAt,value
2023-05-27T01:01:08.653Z,18.05
2023-05-27T01:03:37.183Z,18.02
2023-05-27T01:06:13.784Z,17.98
2023-05-27T01:09:05.314Z,17.93
2023-05-27T01:11:39.427Z,17.84
2023-05-27T01:14:10.890Z,17.77
2023-05-27T01:16:40.946Z,17.70
2023-05-27T01:19:19.387Z,17.61
2023-05-27T01:21:49.185Z,17.56
2023-05-27T01:24:17.024Z,17.57
2023-05-27T01:26:44.863Z,17.58
2023-05-27T01:29:12.832Z,17.56
2023-05-27T01:31:47.100Z,17.53
2023-05-27T01:34:18.537Z,17.49
2023-05-27T01:36:52.363Z,17.44
2023-05-27T01:39:22.209Z,17.38
2023-05-27T01:41:50.568Z,17.33
2023-05-27T01:44:18.633Z,17.29
2023-05-27T01:46:46.792Z,17.24
2023-05-27T01:49:14.947Z,17.21
2023-05-27T01:51:42.715Z,17.21
2023-05-27T01:54:10.792Z,17.18
2023-05-27T01:56:38.555Z,17.10
2023-05-27T01:59:06.268Z,16.97
2023-05-27T02:01:35.211Z,16.82
2023-05-27T02:04:03.356Z,16.66
2023-05-27T02:06:31.604Z,16.49
2023-05-27T02:08:59.526Z,16.34
2023-05-27T02:11:28.056Z,16.23
2023-05-27T02:13:57.193Z,16.20
2023-05-27T02:16:26.067Z,16.19
2023-05-27T02:18:54.628Z,16.18
2023-05-27T02:21:22.700Z,16.18
2023-05-27T02:23:51.683Z,16.21
2023-05-27T02:26:19.444Z,16.24
2023-05-27T02:28:47.344Z,16.26
2023-05-27T02:31:15.124Z,16.30
2023-05-27T02:33:43.308Z,16.37
2023-05-27T02:36:11.910Z,16.47
2023-05-27T02:38:39.801Z,16.57
2023-05-27T02:41:07.637Z,16.67
2023-05-27T02:43:36.739Z,16.75
2023-05-27T02:46:04.801Z,16.82
2023-05-27T02:48:32.768Z,16.85
2023-05-27T02:51:00.805Z,16.91
2023-05-27T02:53:28.573Z,17.00
2023-05-27T02:59:09.480Z,17.23
2023-05-27T03:01:37.279Z,17.32
2023-05-27T03:04:05.440Z,17.38
2023-05-27T03:06:33.873Z,17.42
2023-05-27T03:09:02.351Z,17.46
2023-05-27T03:11:30.148Z,17.53
2023-05-27T03:13:59.012Z,17.63
2023-05-27T03:16:26.982Z,17.72
2023-05-27T03:18:55.121Z,17.78
2023-05-27T03:21:23.167Z,17.82
2023-05-27T03:23:51.102Z,17.86
2023-05-27T03:26:20.456Z,17.89
2023-05-27T03:28:49.672Z,17.92
2023-05-27T03:31:17.672Z,17.96
2023-05-27T03:33:52.999Z,18.03
2023-05-27T03:39:32.339Z,18.35
2023-05-27T03:42:01.845Z,18.50
2023-05-27T03:44:29.914Z,18.62
2023-05-27T03:46:58.905Z,18.72
2023-05-27T03:49:26.521Z,18.78
2023-05-27T03:51:54.259Z,18.81
2023-05-27T03:54:22.024Z,18.80
2023-05-27T03:56:53.488Z,18.77
2023-05-27T03:59:21.443Z,18.74
2023-05-27T04:01:50.247Z,18.74
2023-05-27T04:04:18.027Z,18.74
2023-05-27T04:06:45.868Z,18.75
2023-05-27T04:09:14.248Z,18.72
2023-05-27T04:11:42.119Z,18.67
2023-05-27T04:14:11.209Z,18.65
2023-05-27T04:16:39.513Z,18.61
2023-05-27T04:19:08.578Z,18.54
2023-05-27T04:21:36.652Z,18.48
2023-05-27T04:24:05.392Z,18.44
2023-05-27T04:26:34.437Z,18.43
2023-05-27T04:29:03.026Z,18.42
2023-05-27T04:31:31.047Z,18.42
2023-05-27T04:34:04.286Z,18.40
2023-05-27T04:36:34.847Z,18.39
2023-05-27T04:39:05.737Z,18.36
2023-05-27T04:41:37.636Z,18.33
2023-05-27T04:44:34.605Z,18.29
2023-05-27T04:47:02.656Z,18.30
2023-05-27T04:49:30.813Z,18.35
2023-05-27T04:52:01.136Z,18.38
2023-05-27T04:54:29.113Z,18.43
2023-05-27T04:56:56.869Z,18.45
2023-05-27T04:59:52.179Z,18.45
2023-05-27T05:02:26.441Z,18.47
2023-05-27T05:05:11.486Z,18.49
2023-05-27T05:07:46.608Z,18.53
2023-05-27T05:10:14.981Z,18.59
2023-05-27T05:12:48.703Z,18.62
2023-05-27T05:15:17.175Z,18.64
2023-05-27T05:17:45.117Z,18.65
2023-05-27T05:20:13.791Z,18.68
2023-05-27T05:22:42.208Z,18.67
2023-05-27T05:25:10.377Z,18.71
2023-05-27T05:27:43.164Z,18.79
2023-05-27T05:30:12.877Z,18.88
2023-05-27T05:32:40.579Z,18.94
2023-05-27T05:35:09.808Z,19.02
2023-05-27T05:37:38.190Z,19.09
2023-05-27T05:40:09.897Z,19.13
2023-05-27T05:42:39.784Z,19.18
2023-05-27T05:45:09.193Z,19.22
2023-05-27T05:47:37.296Z,19.27
2023-05-27T05:50:11.084Z,19.33
2023-05-27T05:52:39.253Z,19.38
2023-05-27T05:55:07.748Z,19.51
2023-05-27T05:57:36.480Z,19.70
2023-05-27T06:00:06.974Z,19.86
2023-05-27T06:02:46.372Z,20.04
2023-05-27T06:05:27.409Z,20.21
2023-05-27T06:07:55.524Z,20.39
2023-05-27T06:10:23.305Z,20.61
2023-05-27T06:12:51.051Z,20.82
2023-05-27T06:15:19.637Z,21.03
2023-05-27T06:17:48.849Z,21.18
2023-05-27T06:20:19.422Z,21.34
2023-05-27T06:22:50.305Z,21.51
2023-05-27T06:25:47.774Z,21.81
2023-05-27T06:28:15.634Z,22.10
2023-05-27T06:30:44.315Z,22.41
2023-05-27T06:33:12.724Z,22.74
2023-05-27T06:35:40.564Z,23.00
2023-05-27T06:38:10.302Z,23.16
2023-05-27T06:40:41.837Z,23.25
2023-05-27T06:43:12.778Z,23.25
2023-05-27T06:46:03.879Z,23.19
2023-05-27T06:48:55.164Z,23.15
2023-05-27T06:51:24.723Z,23.18
2023-05-27T06:53:52.574Z,23.21
2023-05-27T06:56:25.253Z,23.24
2023-05-27T06:58:53.192Z,23.31
2023-05-27T07:01:22.373Z,23.42
2023-05-27T07:04:02.372Z,23.57
2023-05-27T07:06:45.705Z,23.62
2023-05-27T07:09:15.108Z,23.64
2023-05-27T07:11:43.380Z,23.66
2023-05-27T07:14:14.540Z,23.65
2023-05-27T07:16:43.418Z,23.64
2023-05-27T07:19:11.489Z,23.68
2023-05-27T07:22:00.860Z,23.72
2023-05-27T07:24:30.384Z,23.79
2023-05-27T07:26:58.951Z,23.82
2023-05-27T07:29:29.172Z,23.78
2023-05-27T07:31:57.041Z,23.69
2023-05-27T07:34:26.955Z,23.67
2023-05-27T07:36:55.436Z,23.65
2023-05-27T07:39:25.662Z,23.67
2023-05-27T07:41:53.590Z,23.72
2023-05-27T07:44:21.604Z,23.72
2023-05-27T07:46:49.412Z,23.76
2023-05-27T07:49:17.640Z,23.83
2023-05-27T07:51:59.228Z,23.88
2023-05-27T07:54:28.301Z,23.95
2023-05-27T07:56:59.268Z,23.96
2023-05-27T07:59:27.848Z,24.02
2023-05-27T08:01:55.631Z,24.05
2023-05-27T08:04:25.587Z,24.10
2023-05-27T08:07:15.923Z,24.12
2023-05-27T08:10:07.879Z,24.17
2023-05-27T08:13:15.762Z,24.27
2023-05-27T08:15:55.710Z,24.36
2023-05-27T08:18:40.196Z,24.45
2023-05-27T08:21:18.892Z,24.51
2023-05-27T08:23:52.490Z,24.58
2023-05-27T08:26:36.899Z,24.61
2023-05-27T08:29:18.817Z,24.61
2023-05-27T08:32:01.902Z,24.75
2023-05-27T08:34:30.047Z,24.94
2023-05-27T08:36:57.909Z,25.07
2023-05-27T08:39:28.016Z,25.17
2023-05-27T08:42:20.677Z,25.25
2023-05-27T08:44:48.449Z,25.24
2023-05-27T08:47:17.231Z,25.25
2023-05-27T08:49:46.223Z,25.30
2023-05-27T08:52:16.716Z,25.37
2023-05-27T08:54:45.128Z,25.40
2023-05-27T08:57:13.203Z,25.44
2023-05-27T08:59:41.468Z,25.51
2023-05-27T09:02:13.371Z,25.63
2023-05-27T09:04:42.613Z,25.87
2023-05-27T09:07:10.316Z,26.16
2023-05-27T09:09:38.069Z,26.42
2023-05-27T09:12:07.267Z,26.69
2023-05-27T09:14:35.552Z,26.96
2023-05-27T09:17:12.305Z,27.20
2023-05-27T09:19:40.086Z,27.33
2023-05-27T09:22:08.260Z,27.44
2023-05-27T09:24:36.125Z,27.55
2023-05-27T09:27:04.507Z,27.60
2023-05-27T09:29:36.074Z,27.48
2023-05-27T09:32:09.311Z,27.34
2023-05-27T09:34:40.296Z,27.36
2023-05-27T09:37:14.257Z,27.40
2023-05-27T09:39:43.202Z,27.54
2023-05-27T09:42:11.309Z,27.90
2023-05-27T09:44:42.007Z,28.17
2023-05-27T09:47:13.292Z,28.35
2023-05-27T09:49:41.319Z,28.56
2023-05-27T09:52:09.393Z,28.84
2023-05-27T09:54:37.640Z,28.95
2023-05-27T09:57:07.810Z,28.89
2023-05-27T09:59:35.755Z,28.75
2023-05-27T10:02:07.041Z,28.66
2023-05-27T10:04:34.762Z,28.65
2023-05-27T10:07:03.409Z,28.77
2023-05-27T10:09:31.431Z,28.98
2023-05-27T10:11:59.408Z,28.97
2023-05-27T10:14:30.253Z,28.89
2023-05-27T10:16:58.218Z,28.89
2023-05-27T10:19:26.736Z,28.84
2023-05-27T10:21:54.700Z,28.77
2023-05-27T10:24:32.355Z,28.76
2023-05-27T10:27:07.903Z,28.85
2023-05-27T10:29:39.972Z,28.99
2023-05-27T10:32:07.965Z,29.20
2023-05-27T10:34:39.690Z,29.41
2023-05-27T10:37:08.508Z,29.63
2023-05-27T10:39:36.813Z,29.89
2023-05-27T10:42:14.070Z,30.30
2023-05-27T10:44:42.139Z,30.67
2023-05-27T10:47:16.012Z,31.02
2023-05-27T10:49:47.840Z,31.34
2023-05-27T10:52:17.742Z,31.28
2023-05-27T10:54:49.880Z,30.81
2023-05-27T10:57:18.688Z,30.19
2023-05-27T10:59:57.746Z,29.52
2023-05-27T11:02:32.437Z,28.57
2023-05-27T11:05:00.518Z,27.71
2023-05-27T11:07:28.379Z,27.05
2023-05-27T11:09:56.650Z,26.66
2023-05-27T11:12:25.292Z,26.47
2023-05-27T11:14:54.499Z,26.18
2023-05-27T11:17:22.524Z,25.78
2023-05-27T11:19:51.395Z,25.37
2023-05-27T11:22:20.626Z,24.97
2023-05-27T11:24:57.986Z,24.65
2023-05-27T11:27:26.114Z,24.19
2023-05-27T11:29:54.233Z,23.72
2023-05-27T11:32:22.095Z,23.23
2023-05-27T11:34:50.084Z,22.86
2023-05-27T11:37:18.423Z,22.54
2023-05-27T11:39:53.683Z,22.27
2023-05-27T11:42:23.813Z,21.99
2023-05-27T11:44:53.117Z,21.73
2023-05-27T11:47:21.729Z,21.51
2023-05-27T11:49:52.640Z,21.27
2023-05-27T11:52:20.431Z,21.12
2023-05-27T11:54:57.873Z,21.05
2023-05-27T11:57:26.798Z,21.01
2023-05-27T11:59:54.769Z,20.95
2023-05-27T12:02:22.787Z,20.85
2023-05-27T12:04:51.007Z,20.79
2023-05-27T12:07:21.440Z,20.75
2023-05-27T12:09:50.746Z,20.74
2023-05-27T12:12:21.924Z,20.77
2023-05-27T12:14:49.800Z,20.83
2023-05-27T12:17:17.714Z,20.87
2023-05-27T12:19:45.799Z,20.95
2023-05-27T12:22:13.498Z,21.05
2023-05-27T12:24:41.230Z,21.15
2023-05-27T12:27:09.363Z,21.23
2023-05-27T12:29:37.047Z,21.23
2023-05-27T12:32:05.349Z,21.20
2023-05-27T12:34:33.218Z,21.21
2023-05-27T12:37:01.396Z,21.21
2023-05-27T12:39:29.262Z,21.24
2023-05-27T12:41:57.019Z,21.20
2023-05-27T12:44:24.786Z,21.14
2023-05-27T12:46:52.601Z,21.07
2023-05-27T12:49:20.753Z,20.98
2023-05-27T12:51:48.593Z,20.84
2023-05-27T12:54:17.075Z,20.76
2023-05-27T12:56:44.844Z,20.72
2023-05-27T12:59:12.604Z,20.71
2023-05-27T13:01:40.472Z,20.62
2023-05-27T13:04:08.480Z,20.53
2023-05-27T13:06:36.407Z,20.40
2023-05-27T13:09:05.505Z,20.32
2023-05-27T13:11:35.984Z,20.25
2023-05-27T13:14:03.651Z,20.13
2023-05-27T13:16:32.346Z,20.03
2023-05-27T13:19:55.239Z,20.03
2023-05-27T13:22:22.905Z,19.98
2023-05-27T13:24:50.565Z,19.90
2023-05-27T13:27:18.333Z,19.85
2023-05-27T13:29:45.998Z,19.83
2023-05-27T13:32:14.404Z,19.85
2023-05-27T13:34:42.554Z,19.94
2023-05-27T13:37:12.640Z,20.07
2023-05-27T13:39:44.229Z,20.20
2023-05-27T13:42:12.086Z,20.36
2023-05-27T13:44:39.957Z,20.60
2023-05-27T13:47:07.612Z,21.05
2023-05-27T13:49:37.124Z,21.78
2023-05-27T13:52:05.167Z,22.63
2023-05-27T13:54:33.684Z,23.44
2023-05-27T13:57:01.545Z,24.21
2023-05-27T13:59:29.413Z,25.07
2023-05-27T14:01:57.210Z,25.93
2023-05-27T14:04:25.077Z,26.67
2023-05-27T14:06:53.729Z,27.23
2023-05-27T14:09:21.502Z,27.62
2023-05-27T14:11:49.260Z,27.91
2023-05-27T14:14:17.030Z,28.20
2023-05-27T14:16:44.856Z,28.46
2023-05-27T14:19:12.964Z,28.64
2023-05-27T14:21:40.737Z,28.77
2023-05-27T14:24:08.603Z,28.89
2023-05-27T14:26:36.729Z,28.97
2023-05-27T14:29:04.646Z,29.01
2023-05-27T14:31:32.350Z,29.04
2023-05-27T14:34:00.691Z,29.15
2023-05-27T14:36:28.456Z,29.19
2023-05-27T14:38:56.623Z,29.21
2023-05-27T14:41:24.491Z,29.20
2023-05-27T14:43:55.176Z,29.17
2023-05-27T14:46:25.111Z,29.14
2023-05-27T14:48:53.208Z,28.99
2023-05-27T14:51:21.089Z,28.81
2023-05-27T14:53:48.950Z,28.60
2023-05-27T14:56:17.318Z,28.46
2023-05-27T14:58:45.811Z,28.45
2023-05-27T15:01:13.598Z,28.44
2023-05-27T15:03:41.500Z,28.43
2023-05-27T15:06:10.442Z,28.36
2023-05-27T15:08:38.816Z,28.25
2023-05-27T15:11:07.897Z,28.12
2023-05-27T15:13:35.696Z,28.03
2023-05-27T15:16:03.476Z,28.03
2023-05-27T15:18:31.533Z,27.99
2023-05-27T15:20:59.422Z,27.89
2023-05-27T15:23:27.409Z,27.79
2023-05-27T15:25:55.247Z,27.71
2023-05-27T15:28:23.001Z,27.56
2023-05-27T15:30:53.012Z,27.46
2023-05-27T15:33:20.884Z,27.31
2023-05-27T15:35:50.086Z,27.21
2023-05-27T15:38:21.566Z,27.18
2023-05-27T15:40:49.311Z,27.21
2023-05-27T15:43:18.808Z,27.20
2023-05-27T15:46:02.792Z,27.15
2023-05-27T15:48:32.408Z,26.97
2023-05-27T15:51:00.450Z,26.84
2023-05-27T15:53:28.321Z,26.74
2023-05-27T15:55:55.970Z,26.61
2023-05-27T15:58:23.586Z,26.48
2023-05-27T16:00:51.496Z,26.42
2023-05-27T16:03:19.827Z,26.33
2023-05-27T16:05:47.745Z,26.20
2023-05-27T16:08:15.517Z,26.05
2023-05-27T16:10:53.661Z,25.94
2023-05-27T16:13:21.903Z,25.82
2023-05-27T16:15:49.667Z,25.65
2023-05-27T16:18:20.588Z,25.49
2023-05-27T16:20:49.893Z,25.26
2023-05-27T16:23:18.289Z,25.02
2023-05-27T16:25:47.073Z,24.90
2023-05-27T16:28:14.838Z,24.83
2023-05-27T16:30:42.371Z,24.73
2023-05-27T16:33:10.099Z,24.67
2023-05-27T16:35:38.022Z,24.56
2023-05-27T16:38:06.113Z,24.38
2023-05-27T16:40:33.866Z,24.18
2023-05-27T16:43:01.521Z,24.06
2023-05-27T16:45:35.294Z,23.90
2023-05-27T16:48:08.123Z,23.61
2023-05-27T16:50:36.491Z,23.27
2023-05-27T16:53:04.473Z,22.96
2023-05-27T16:55:32.436Z,22.71
2023-05-27T16:58:00.302Z,22.53
2023-05-27T17:00:29.234Z,22.34
2023-05-27T17:02:59.834Z,22.18
2023-05-27T17:05:27.722Z,22.03
2023-05-27T17:07:55.481Z,21.89
2023-05-27T17:10:23.290Z,21.77
2023-05-27T17:12:51.024Z,21.68
2023-05-27T17:15:19.289Z,21.63
2023-05-27T17:17:47.419Z,21.57
2023-05-27T17:20:20.286Z,21.49
2023-05-27T17:22:51.403Z,21.40
2023-05-27T17:25:19.121Z,21.32
2023-05-27T17:27:49.090Z,21.24
2023-05-27T17:30:17.362Z,21.16
2023-05-27T17:32:45.174Z,21.09
2023-05-27T17:35:13.200Z,21.03
2023-05-27T17:37:41.780Z,20.98
2023-05-27T17:40:12.738Z,20.95
2023-05-27T17:42:40.600Z,20.87
2023-05-27T17:45:09.008Z,20.80
2023-05-27T17:47:37.902Z,20.73
2023-05-27T17:50:06.727Z,20.68
2023-05-27T17:52:34.391Z,20.65
2023-05-27T17:55:02.281Z,20.63
2023-05-27T17:57:30.123Z,20.59
2023-05-27T17:59:57.989Z,20.52
2023-05-27T18:02:28.102Z,20.49
2023-05-27T18:04:56.280Z,20.45
2023-05-27T18:07:24.565Z,20.41
2023-05-27T18:09:52.435Z,20.38
2023-05-27T18:12:20.395Z,20.37
2023-05-27T18:14:48.267Z,20.33
2023-05-27T18:17:17.264Z,20.28
2023-05-27T18:19:45.012Z,20.24
2023-05-27T18:22:12.881Z,20.18
2023-05-27T18:24:42.229Z,20.12
2023-05-27T18:27:15.074Z,20.07
2023-05-27T18:29:43.047Z,20.01
2023-05-27T18:32:10.804Z,19.99
2023-05-27T18:34:38.671Z,19.97
2023-05-27T18:37:06.949Z,19.95
2023-05-27T18:39:34.920Z,19.95
2023-05-27T18:42:02.733Z,19.96
2023-05-27T18:44:30.564Z,19.92
2023-05-27T18:46:58.472Z,19.87
2023-05-27T18:49:26.462Z,19.77
2023-05-27T18:51:54.341Z,19.72
2023-05-27T18:54:22.427Z,19.69
2023-05-27T18:56:50.173Z,19.68
2023-05-27T18:59:17.969Z,19.67
2023-05-27T19:01:46.403Z,19.65
2023-05-27T19:04:14.962Z,19.61
2023-05-27T19:06:43.823Z,19.57
2023-05-27T19:09:11.504Z,19.51
2023-05-27T19:11:39.405Z,19.47
2023-05-27T19:14:07.650Z,19.44
2023-05-27T19:16:35.703Z,19.42
2023-05-27T19:19:03.874Z,19.41
2023-05-27T19:21:31.845Z,19.41
2023-05-27T19:24:00.325Z,19.41
2023-05-27T19:26:28.578Z,19.43
2023-05-27T19:28:58.378Z,19.41
2023-05-27T19:31:26.213Z,19.41
2023-05-27T19:33:54.196Z,19.38
2023-05-27T19:36:21.850Z,19.32
2023-05-27T19:38:49.718Z,19.25
2023-05-27T19:41:17.523Z,19.20
2023-05-27T19:43:45.282Z,19.15
2023-05-27T19:46:13.026Z,19.15
2023-05-27T19:48:40.773Z,19.12
2023-05-27T19:51:09.990Z,19.09
2023-05-27T19:53:37.685Z,19.05
2023-05-27T19:56:06.953Z,19.02
2023-05-27T19:58:37.209Z,19.00
2023-05-27T20:04:26.732Z,19.00
2023-05-27T20:06:54.499Z,18.98
2023-05-27T20:09:22.367Z,18.98
2023-05-27T20:11:50.448Z,18.97
2023-05-27T20:14:18.201Z,18.91
2023-05-27T20:16:46.836Z,18.84
2023-05-27T20:19:14.663Z,18.77
2023-05-27T20:21:42.521Z,18.70
2023-05-27T20:24:10.595Z,18.66
2023-05-27T20:26:39.494Z,18.61
2023-05-27T20:29:08.398Z,18.55
2023-05-27T20:31:36.074Z,18.53
2023-05-27T20:34:04.012Z,18.55
2023-05-27T20:36:32.904Z,18.58
2023-05-27T20:39:02.302Z,18.57
2023-05-27T20:41:30.078Z,18.56
2023-05-27T20:44:01.010Z,18.54
2023-05-27T20:46:31.186Z,18.48
2023-05-27T20:48:59.000Z,18.43
2023-05-27T20:51:27.401Z,18.36
2023-05-27T20:53:57.803Z,18.27
2023-05-27T20:56:29.894Z,18.20
2023-05-27T20:58:58.248Z,18.12
2023-05-27T21:01:27.091Z,18.07
2023-05-27T21:03:55.016Z,18.03
2023-05-27T21:06:22.886Z,18.01
2023-05-27T21:08:50.857Z,17.98
2023-05-27T21:11:18.520Z,17.94
2023-05-27T21:13:46.312Z,17.92
2023-05-27T21:16:14.073Z,17.87
2023-05-27T21:18:41.941Z,17.82
2023-05-27T21:21:09.618Z,17.78
2023-05-27T21:23:37.468Z,17.73
2023-05-27T21:26:05.952Z,17.65
2023-05-27T21:28:36.551Z,17.57
2023-05-27T21:31:04.284Z,17.50
2023-05-27T21:33:31.943Z,17.42
2023-05-27T21:35:59.740Z,17.33
2023-05-27T21:38:32.649Z,17.25
2023-05-27T21:41:01.170Z,17.18
2023-05-27T21:43:28.804Z,17.12
2023-05-27T21:45:56.772Z,17.08
2023-05-27T21:48:24.664Z,17.04
2023-05-27T21:50:53.284Z,17.00
2023-05-27T21:53:21.048Z,16.97
2023-05-27T21:55:48.726Z,16.97
2023-05-27T21:58:19.958Z,16.97
2023-05-27T22:00:48.448Z,16.94
2023-05-27T22:03:16.502Z,16.90
2023-05-27T22:05:44.445Z,16.86
2023-05-27T22:08:12.161Z,16.79
2023-05-27T22:10:39.865Z,16.73
2023-05-27T22:13:08.688Z,16.67
2023-05-27T22:15:37.308Z,16.61
2023-05-27T22:18:05.239Z,16.53
2023-05-27T22:20:33.140Z,16.46
2023-05-27T22:23:02.136Z,16.42
2023-05-27T22:25:32.928Z,16.39
2023-05-27T22:28:01.624Z,16.38
2023-05-27T22:30:29.447Z,16.38
2023-05-27T22:32:57.583Z,16.35
2023-05-27T22:35:25.339Z,16.33
2023-05-27T22:37:53.034Z,16.28
2023-05-27T22:40:20.863Z,16.22
2023-05-27T22:42:48.913Z,16.15
2023-05-27T22:45:16.985Z,16.10
2023-05-27T22:47:45.068Z,16.08
2023-05-27T22:50:12.792Z,16.09
2023-05-27T22:52:40.520Z,16.07
2023-05-27T22:55:08.899Z,16.04
2023-05-27T22:57:36.667Z,16.01
2023-05-27T23:00:06.895Z,15.97
2023-05-27T23:02:34.941Z,15.94
2023-05-27T23:05:03.040Z,15.88
2023-05-27T23:07:30.996Z,15.85
2023-05-27T23:09:58.796Z,15.82
2023-05-27T23:12:27.055Z,15.81
2023-05-27T23:14:54.720Z,15.82
2023-05-27T23:17:23.035Z,15.81
2023-05-27T23:19:51.519Z,15.78
2023-05-27T23:22:19.192Z,15.73
2023-05-27T23:24:47.046Z,15.70
2023-05-27T23:27:16.552Z,15.65
2023-05-27T23:29:44.250Z,15.59
2023-05-27T23:32:11.957Z,15.55
2023-05-27T23:34:40.001Z,15.52
2023-05-27T23:37:07.771Z,15.50
2023-05-27T23:39:35.387Z,15.45
2023-05-27T23:42:03.450Z,15.39
2023-05-27T23:44:31.303Z,15.34
2023-05-27T23:46:58.965Z,15.31
2023-05-27T23:49:26.802Z,15.27
2023-05-27T23:51:54.464Z,15.23
2023-05-27T23:54:22.418Z,15.22
2023-05-27T23:56:52.778Z,15.23
2023-05-27T23:59:20.662Z,15.22
